sensor_id;sensor_type;location;lat;lon;timestamp;temperature;humidity
61807;DHT22;47726;52.766;6.606;2022-12-11T00:00:18;1.30;99.90
61807;DHT22;47726;52.766;6.606;2022-12-11T00:02:44;1.30;99.90
61807;DHT22;47726;52.766;6.606;2022-12-11T00:05:10;1.30;99.90
61807;DHT22;47726;52.766;6.606;2022-12-11T00:07:35;1.30;99.90
61807;DHT22;47726;52.766;6.606;2022-12-11T00:10:01;1.30;99.90
61807;DHT22;47726;52.766;6.606;2022-12-11T00:12:29;1.30;99.90
61807;DHT22;47726;52.766;6.606;2022-12-11T00:14:55;1.30;99.90
61807;DHT22;47726;52.766;6.606;2022-12-11T00:17:20;1.30;99.90
61807;DHT22;47726;52.766;6.606;2022-12-11T00:19:46;1.30;99.90
61807;DHT22;47726;52.766;6.606;2022-12-11T00:22:11;1.30;99.90
61807;DHT22;47726;52.766;6.606;2022-12-11T00:24:37;1.30;99.90
61807;DHT22;47726;52.766;6.606;2022-12-11T00:27:03;1.40;99.90
61807;DHT22;47726;52.766;6.606;2022-12-11T00:29:29;1.30;99.90
61807;DHT22;47726;52.766;6.606;2022-12-11T00:31:55;1.40;99.90
61807;DHT22;47726;52.766;6.606;2022-12-11T00:34:20;1.40;99.90
61807;DHT22;47726;52.766;6.606;2022-12-11T00:36:46;1.30;99.90
61807;DHT22;47726;52.766;6.606;2022-12-11T00:39:12;1.30;99.90
61807;DHT22;47726;52.766;6.606;2022-12-11T00:41:38;1.40;99.90
61807;DHT22;47726;52.766;6.606;2022-12-11T00:44:04;1.30;99.90
61807;DHT22;47726;52.766;6.606;2022-12-11T00:46:29;1.40;99.90
61807;DHT22;47726;52.766;6.606;2022-12-11T00:48:55;1.40;99.90
61807;DHT22;47726;52.766;6.606;2022-12-11T00:51:21;1.40;99.90
61807;DHT22;47726;52.766;6.606;2022-12-11T00:53:46;1.40;99.90
61807;DHT22;47726;52.766;6.606;2022-12-11T00:56:15;1.40;99.90
61807;DHT22;47726;52.766;6.606;2022-12-11T00:58:41;1.40;99.90
61807;DHT22;47726;52.766;6.606;2022-12-11T01:01:09;1.40;99.90
61807;DHT22;47726;52.766;6.606;2022-12-11T01:03:35;1.40;99.90
61807;DHT22;47726;52.766;6.606;2022-12-11T01:06:01;1.40;99.90
61807;DHT22;47726;52.766;6.606;2022-12-11T01:08:26;1.40;99.90
61807;DHT22;47726;52.766;6.606;2022-12-11T01:11:01;1.40;99.90
61807;DHT22;47726;52.766;6.606;2022-12-11T01:13:27;1.40;99.90
61807;DHT22;47726;52.766;6.606;2022-12-11T01:15:52;1.40;99.90
61807;DHT22;47726;52.766;6.606;2022-12-11T01:18:18;1.40;99.90
61807;DHT22;47726;52.766;6.606;2022-12-11T01:20:43;1.40;99.90
61807;DHT22;47726;52.766;6.606;2022-12-11T01:23:11;1.40;99.90
61807;DHT22;47726;52.766;6.606;2022-12-11T01:25:37;1.40;99.90
61807;DHT22;47726;52.766;6.606;2022-12-11T01:28:04;1.40;99.90
61807;DHT22;47726;52.766;6.606;2022-12-11T01:30:30;1.40;99.90
61807;DHT22;47726;52.766;6.606;2022-12-11T01:32:56;1.40;99.90
61807;DHT22;47726;52.766;6.606;2022-12-11T01:35:22;1.40;99.90
61807;DHT22;47726;52.766;6.606;2022-12-11T01:37:48;1.50;99.90
61807;DHT22;47726;52.766;6.606;2022-12-11T01:40:16;1.50;99.90
61807;DHT22;47726;52.766;6.606;2022-12-11T01:42:42;1.50;99.90
61807;DHT22;47726;52.766;6.606;2022-12-11T01:47:55;1.50;99.90
61807;DHT22;47726;52.766;6.606;2022-12-11T01:50:21;1.50;99.90
61807;DHT22;47726;52.766;6.606;2022-12-11T01:52:48;1.50;99.90
61807;DHT22;47726;52.766;6.606;2022-12-11T01:55:15;1.50;99.90
61807;DHT22;47726;52.766;6.606;2022-12-11T01:57:44;1.50;99.90
61807;DHT22;47726;52.766;6.606;2022-12-11T02:00:12;1.50;99.90
61807;DHT22;47726;52.766;6.606;2022-12-11T02:02:38;1.50;99.90
61807;DHT22;47726;52.766;6.606;2022-12-11T02:05:05;1.50;99.90
61807;DHT22;47726;52.766;6.606;2022-12-11T02:07:45;1.50;99.90
61807;DHT22;47726;52.766;6.606;2022-12-11T02:10:12;1.50;99.90
61807;DHT22;47726;52.766;6.606;2022-12-11T02:18:15;1.50;99.90
61807;DHT22;47726;52.766;6.606;2022-12-11T02:20:52;1.50;99.90
61807;DHT22;47726;52.766;6.606;2022-12-11T02:26:11;1.50;99.90
61807;DHT22;47726;52.766;6.606;2022-12-11T02:31:50;1.50;99.90
61807;DHT22;47726;52.766;6.606;2022-12-11T02:34:24;1.50;99.90
61807;DHT22;47726;52.766;6.606;2022-12-11T02:36:56;1.50;99.90
61807;DHT22;47726;52.766;6.606;2022-12-11T02:39:24;1.60;99.90
61807;DHT22;47726;52.766;6.606;2022-12-11T02:41:51;1.60;99.90
61807;DHT22;47726;52.766;6.606;2022-12-11T02:44:21;1.60;99.90
61807;DHT22;47726;52.766;6.606;2022-12-11T02:46:50;1.60;99.90
61807;DHT22;47726;52.766;6.606;2022-12-11T02:49:17;1.60;99.90
61807;DHT22;47726;52.766;6.606;2022-12-11T02:51:44;1.60;99.90
61807;DHT22;47726;52.766;6.606;2022-12-11T02:54:16;1.60;99.90
61807;DHT22;47726;52.766;6.606;2022-12-11T02:57:01;1.60;99.90
61807;DHT22;47726;52.766;6.606;2022-12-11T02:59:34;1.60;99.90
61807;DHT22;47726;52.766;6.606;2022-12-11T03:02:01;1.60;99.90
61807;DHT22;47726;52.766;6.606;2022-12-11T03:04:27;1.60;99.90
61807;DHT22;47726;52.766;6.606;2022-12-11T03:06:57;1.60;99.90
61807;DHT22;47726;52.766;6.606;2022-12-11T03:09:25;1.60;99.90
61807;DHT22;47726;52.766;6.606;2022-12-11T03:11:51;1.60;99.90
61807;DHT22;47726;52.766;6.606;2022-12-11T03:14:17;1.60;99.90
61807;DHT22;47726;52.766;6.606;2022-12-11T03:16:55;1.60;99.90
61807;DHT22;47726;52.766;6.606;2022-12-11T03:24:42;1.60;99.90
61807;DHT22;47726;52.766;6.606;2022-12-11T03:27:22;1.60;99.90
61807;DHT22;47726;52.766;6.606;2022-12-11T03:30:01;1.60;99.90
61807;DHT22;47726;52.766;6.606;2022-12-11T03:32:35;1.60;99.90
61807;DHT22;47726;52.766;6.606;2022-12-11T03:35:07;1.60;99.90
61807;DHT22;47726;52.766;6.606;2022-12-11T03:37:38;1.60;99.90
61807;DHT22;47726;52.766;6.606;2022-12-11T03:40:14;1.60;99.90
61807;DHT22;47726;52.766;6.606;2022-12-11T03:42:42;1.60;99.90
61807;DHT22;47726;52.766;6.606;2022-12-11T03:45:10;1.70;99.90
61807;DHT22;47726;52.766;6.606;2022-12-11T03:47:37;1.60;99.90
61807;DHT22;47726;52.766;6.606;2022-12-11T03:50:06;1.70;99.90
61807;DHT22;47726;52.766;6.606;2022-12-11T03:52:34;1.70;99.90
61807;DHT22;47726;52.766;6.606;2022-12-11T03:55:03;1.70;99.90
61807;DHT22;47726;52.766;6.606;2022-12-11T03:57:32;1.60;99.90
61807;DHT22;47726;52.766;6.606;2022-12-11T03:59:59;1.70;99.90
61807;DHT22;47726;52.766;6.606;2022-12-11T04:02:25;1.60;99.90
61807;DHT22;47726;52.766;6.606;2022-12-11T04:04:51;1.70;99.90
61807;DHT22;47726;52.766;6.606;2022-12-11T04:07:17;1.70;99.90
61807;DHT22;47726;52.766;6.606;2022-12-11T04:09:42;1.70;99.90
61807;DHT22;47726;52.766;6.606;2022-12-11T04:12:08;1.70;99.90
61807;DHT22;47726;52.766;6.606;2022-12-11T04:14:33;1.70;99.90
61807;DHT22;47726;52.766;6.606;2022-12-11T04:17:18;1.70;99.90
61807;DHT22;47726;52.766;6.606;2022-12-11T04:20:04;1.70;99.90
61807;DHT22;47726;52.766;6.606;2022-12-11T04:22:55;1.70;99.90
61807;DHT22;47726;52.766;6.606;2022-12-11T04:25:39;1.70;99.90
61807;DHT22;47726;52.766;6.606;2022-12-11T04:28:05;1.70;99.90
61807;DHT22;47726;52.766;6.606;2022-12-11T04:30:31;1.70;99.90
61807;DHT22;47726;52.766;6.606;2022-12-11T04:32:56;1.70;99.90
61807;DHT22;47726;52.766;6.606;2022-12-11T04:35:22;1.70;99.90
61807;DHT22;47726;52.766;6.606;2022-12-11T04:37:48;1.70;99.90
61807;DHT22;47726;52.766;6.606;2022-12-11T04:40:16;1.70;99.90
61807;DHT22;47726;52.766;6.606;2022-12-11T04:42:41;1.70;99.90
61807;DHT22;47726;52.766;6.606;2022-12-11T04:45:08;1.70;99.90
61807;DHT22;47726;52.766;6.606;2022-12-11T04:47:35;1.70;99.90
61807;DHT22;47726;52.766;6.606;2022-12-11T04:50:02;1.70;99.90
61807;DHT22;47726;52.766;6.606;2022-12-11T04:52:28;1.70;99.90
61807;DHT22;47726;52.766;6.606;2022-12-11T04:54:53;1.70;99.90
61807;DHT22;47726;52.766;6.606;2022-12-11T04:57:19;1.70;99.90
61807;DHT22;47726;52.766;6.606;2022-12-11T04:59:46;1.70;99.90
61807;DHT22;47726;52.766;6.606;2022-12-11T05:02:12;1.70;99.90
61807;DHT22;47726;52.766;6.606;2022-12-11T05:04:38;1.70;99.90
61807;DHT22;47726;52.766;6.606;2022-12-11T05:07:03;1.70;99.90
61807;DHT22;47726;52.766;6.606;2022-12-11T05:09:29;1.70;99.90
61807;DHT22;47726;52.766;6.606;2022-12-11T05:11:55;1.70;99.90
61807;DHT22;47726;52.766;6.606;2022-12-11T05:14:20;1.70;99.90
61807;DHT22;47726;52.766;6.606;2022-12-11T05:16:46;1.70;99.90
61807;DHT22;47726;52.766;6.606;2022-12-11T05:19:12;1.70;99.90
61807;DHT22;47726;52.766;6.606;2022-12-11T05:21:38;1.70;99.90
61807;DHT22;47726;52.766;6.606;2022-12-11T05:24:04;1.70;99.90
61807;DHT22;47726;52.766;6.606;2022-12-11T05:26:30;1.80;99.90
61807;DHT22;47726;52.766;6.606;2022-12-11T05:28:56;1.80;99.90
61807;DHT22;47726;52.766;6.606;2022-12-11T05:31:26;1.80;99.90
61807;DHT22;47726;52.766;6.606;2022-12-11T05:33:52;1.80;99.90
61807;DHT22;47726;52.766;6.606;2022-12-11T05:39:11;1.80;99.90
61807;DHT22;47726;52.766;6.606;2022-12-11T05:41:37;1.80;99.90
61807;DHT22;47726;52.766;6.606;2022-12-11T05:44:03;1.80;99.90
61807;DHT22;47726;52.766;6.606;2022-12-11T05:46:29;1.80;99.90
61807;DHT22;47726;52.766;6.606;2022-12-11T05:48:59;1.80;99.90
61807;DHT22;47726;52.766;6.606;2022-12-11T05:51:26;1.80;99.90
61807;DHT22;47726;52.766;6.606;2022-12-11T05:53:53;1.80;99.90
61807;DHT22;47726;52.766;6.606;2022-12-11T05:56:22;1.80;99.90
61807;DHT22;47726;52.766;6.606;2022-12-11T05:58:48;1.80;99.90
61807;DHT22;47726;52.766;6.606;2022-12-11T06:01:24;1.80;99.90
61807;DHT22;47726;52.766;6.606;2022-12-11T06:03:49;1.80;99.90
61807;DHT22;47726;52.766;6.606;2022-12-11T06:06:15;1.80;99.90
61807;DHT22;47726;52.766;6.606;2022-12-11T06:08:45;1.80;99.90
61807;DHT22;47726;52.766;6.606;2022-12-11T06:11:11;1.80;99.90
61807;DHT22;47726;52.766;6.606;2022-12-11T06:13:38;1.80;99.90
61807;DHT22;47726;52.766;6.606;2022-12-11T06:16:05;1.80;99.90
61807;DHT22;47726;52.766;6.606;2022-12-11T06:18:38;1.80;99.90
61807;DHT22;47726;52.766;6.606;2022-12-11T06:21:23;1.80;99.90
61807;DHT22;47726;52.766;6.606;2022-12-11T06:23:51;1.80;99.90
61807;DHT22;47726;52.766;6.606;2022-12-11T06:26:18;1.80;99.90
61807;DHT22;47726;52.766;6.606;2022-12-11T06:28:44;1.80;99.90
61807;DHT22;47726;52.766;6.606;2022-12-11T06:31:11;1.80;99.90
61807;DHT22;47726;52.766;6.606;2022-12-11T06:33:36;1.80;99.90
61807;DHT22;47726;52.766;6.606;2022-12-11T06:36:07;1.80;99.90
61807;DHT22;47726;52.766;6.606;2022-12-11T06:38:34;1.80;99.90
61807;DHT22;47726;52.766;6.606;2022-12-11T06:41:01;1.80;99.90
61807;DHT22;47726;52.766;6.606;2022-12-11T06:43:32;1.80;99.90
61807;DHT22;47726;52.766;6.606;2022-12-11T06:45:58;1.80;99.90
61807;DHT22;47726;52.766;6.606;2022-12-11T06:48:27;1.80;99.90
61807;DHT22;47726;52.766;6.606;2022-12-11T06:50:53;1.80;99.90
61807;DHT22;47726;52.766;6.606;2022-12-11T06:53:19;1.80;99.90
61807;DHT22;47726;52.766;6.606;2022-12-11T06:55:44;1.80;99.90
61807;DHT22;47726;52.766;6.606;2022-12-11T06:58:10;1.80;99.90
61807;DHT22;47726;52.766;6.606;2022-12-11T07:00:37;1.80;99.90
61807;DHT22;47726;52.766;6.606;2022-12-11T07:03:03;1.80;99.90
61807;DHT22;47726;52.766;6.606;2022-12-11T07:05:30;1.80;99.90
61807;DHT22;47726;52.766;6.606;2022-12-11T07:07:56;1.80;99.90
61807;DHT22;47726;52.766;6.606;2022-12-11T07:10:22;1.80;99.90
61807;DHT22;47726;52.766;6.606;2022-12-11T07:12:48;1.80;99.90
61807;DHT22;47726;52.766;6.606;2022-12-11T07:15:13;1.80;99.90
61807;DHT22;47726;52.766;6.606;2022-12-11T07:17:39;1.80;99.90
61807;DHT22;47726;52.766;6.606;2022-12-11T07:20:05;1.90;99.90
61807;DHT22;47726;52.766;6.606;2022-12-11T07:22:31;1.80;99.90
61807;DHT22;47726;52.766;6.606;2022-12-11T07:24:56;1.90;99.90
61807;DHT22;47726;52.766;6.606;2022-12-11T07:27:23;1.80;99.90
61807;DHT22;47726;52.766;6.606;2022-12-11T07:29:49;1.90;99.90
61807;DHT22;47726;52.766;6.606;2022-12-11T07:32:15;1.80;99.90
61807;DHT22;47726;52.766;6.606;2022-12-11T07:34:41;1.80;99.90
61807;DHT22;47726;52.766;6.606;2022-12-11T07:37:07;1.90;99.90
61807;DHT22;47726;52.766;6.606;2022-12-11T07:39:33;1.90;99.90
61807;DHT22;47726;52.766;6.606;2022-12-11T07:41:58;1.80;99.90
61807;DHT22;47726;52.766;6.606;2022-12-11T07:44:24;1.80;99.90
61807;DHT22;47726;52.766;6.606;2022-12-11T07:46:50;1.90;99.90
61807;DHT22;47726;52.766;6.606;2022-12-11T07:49:16;1.90;99.90
61807;DHT22;47726;52.766;6.606;2022-12-11T07:51:42;1.90;99.90
61807;DHT22;47726;52.766;6.606;2022-12-11T07:54:11;1.90;99.90
61807;DHT22;47726;52.766;6.606;2022-12-11T07:56:39;1.90;99.90
61807;DHT22;47726;52.766;6.606;2022-12-11T07:59:05;1.90;99.90
61807;DHT22;47726;52.766;6.606;2022-12-11T08:01:33;1.90;99.90
61807;DHT22;47726;52.766;6.606;2022-12-11T08:04:07;1.90;99.90
61807;DHT22;47726;52.766;6.606;2022-12-11T08:06:35;1.90;99.90
61807;DHT22;47726;52.766;6.606;2022-12-11T08:09:04;1.90;99.90
61807;DHT22;47726;52.766;6.606;2022-12-11T08:11:30;1.90;99.90
61807;DHT22;47726;52.766;6.606;2022-12-11T08:13:57;1.90;99.90
61807;DHT22;47726;52.766;6.606;2022-12-11T08:16:23;1.90;99.90
61807;DHT22;47726;52.766;6.606;2022-12-11T08:18:50;1.90;99.90
61807;DHT22;47726;52.766;6.606;2022-12-11T08:21:23;1.90;99.90
61807;DHT22;47726;52.766;6.606;2022-12-11T08:23:51;1.90;99.90
61807;DHT22;47726;52.766;6.606;2022-12-11T08:26:20;1.90;99.90
61807;DHT22;47726;52.766;6.606;2022-12-11T08:28:45;1.90;99.90
61807;DHT22;47726;52.766;6.606;2022-12-11T08:31:15;1.90;99.90
61807;DHT22;47726;52.766;6.606;2022-12-11T08:33:42;1.90;99.90
61807;DHT22;47726;52.766;6.606;2022-12-11T08:36:10;1.90;99.90
61807;DHT22;47726;52.766;6.606;2022-12-11T08:38:36;1.90;99.90
61807;DHT22;47726;52.766;6.606;2022-12-11T08:41:20;1.90;99.90
61807;DHT22;47726;52.766;6.606;2022-12-11T08:43:53;1.90;99.90
61807;DHT22;47726;52.766;6.606;2022-12-11T08:46:21;1.90;99.90
61807;DHT22;47726;52.766;6.606;2022-12-11T08:48:48;1.90;99.90
61807;DHT22;47726;52.766;6.606;2022-12-11T08:51:16;1.90;99.90
61807;DHT22;47726;52.766;6.606;2022-12-11T08:53:42;1.90;99.90
61807;DHT22;47726;52.766;6.606;2022-12-11T08:56:13;1.90;99.90
61807;DHT22;47726;52.766;6.606;2022-12-11T08:58:39;1.90;99.90
61807;DHT22;47726;52.766;6.606;2022-12-11T09:01:14;2.00;99.90
61807;DHT22;47726;52.766;6.606;2022-12-11T09:03:41;1.90;99.90
61807;DHT22;47726;52.766;6.606;2022-12-11T09:06:08;1.90;99.90
61807;DHT22;47726;52.766;6.606;2022-12-11T09:08:35;1.90;99.90
61807;DHT22;47726;52.766;6.606;2022-12-11T09:11:09;1.90;99.90
61807;DHT22;47726;52.766;6.606;2022-12-11T09:13:36;2.00;99.90
61807;DHT22;47726;52.766;6.606;2022-12-11T09:16:11;2.00;99.90
61807;DHT22;47726;52.766;6.606;2022-12-11T09:18:38;2.00;99.90
61807;DHT22;47726;52.766;6.606;2022-12-11T09:21:10;2.00;99.90
61807;DHT22;47726;52.766;6.606;2022-12-11T09:23:36;2.00;99.90
61807;DHT22;47726;52.766;6.606;2022-12-11T09:26:03;2.00;99.90
61807;DHT22;47726;52.766;6.606;2022-12-11T09:28:30;2.00;99.90
61807;DHT22;47726;52.766;6.606;2022-12-11T09:30:55;2.00;99.90
61807;DHT22;47726;52.766;6.606;2022-12-11T09:33:21;2.00;99.90
61807;DHT22;47726;52.766;6.606;2022-12-11T09:35:57;2.00;99.90
61807;DHT22;47726;52.766;6.606;2022-12-11T09:38:22;2.00;99.90
61807;DHT22;47726;52.766;6.606;2022-12-11T09:40:48;2.00;99.90
61807;DHT22;47726;52.766;6.606;2022-12-11T09:44:14;2.00;99.90
61807;DHT22;47726;52.766;6.606;2022-12-11T09:46:18;2.00;99.90
61807;DHT22;47726;52.766;6.606;2022-12-11T09:48:47;2.00;99.90
61807;DHT22;47726;52.766;6.606;2022-12-11T09:51:25;2.00;99.90
61807;DHT22;47726;52.766;6.606;2022-12-11T09:53:53;2.00;99.90
61807;DHT22;47726;52.766;6.606;2022-12-11T09:56:24;2.00;99.90
61807;DHT22;47726;52.766;6.606;2022-12-11T10:13:33;2.10;99.90
61807;DHT22;47726;52.766;6.606;2022-12-11T10:18:31;2.10;99.90
61807;DHT22;47726;52.766;6.606;2022-12-11T10:21:00;2.10;99.90
61807;DHT22;47726;52.766;6.606;2022-12-11T10:23:40;2.10;99.90
61807;DHT22;47726;52.766;6.606;2022-12-11T10:26:20;2.10;99.90
61807;DHT22;47726;52.766;6.606;2022-12-11T10:28:46;2.10;99.90
61807;DHT22;47726;52.766;6.606;2022-12-11T10:31:18;2.10;99.90
61807;DHT22;47726;52.766;6.606;2022-12-11T10:34:00;2.10;99.90
61807;DHT22;47726;52.766;6.606;2022-12-11T10:38:53;2.10;99.90
61807;DHT22;47726;52.766;6.606;2022-12-11T10:41:23;2.10;99.90
61807;DHT22;47726;52.766;6.606;2022-12-11T10:43:50;2.10;99.90
61807;DHT22;47726;52.766;6.606;2022-12-11T10:46:22;2.10;99.90
61807;DHT22;47726;52.766;6.606;2022-12-11T10:48:53;2.10;99.90
61807;DHT22;47726;52.766;6.606;2022-12-11T10:51:25;2.10;99.90
61807;DHT22;47726;52.766;6.606;2022-12-11T10:56:30;2.10;99.90
61807;DHT22;47726;52.766;6.606;2022-12-11T10:58:57;2.10;99.90
61807;DHT22;47726;52.766;6.606;2022-12-11T11:01:26;2.10;99.90
61807;DHT22;47726;52.766;6.606;2022-12-11T11:06:24;2.20;99.90
61807;DHT22;47726;52.766;6.606;2022-12-11T11:08:53;2.20;99.90
61807;DHT22;47726;52.766;6.606;2022-12-11T11:13:50;2.20;99.90
61807;DHT22;47726;52.766;6.606;2022-12-11T11:16:18;2.20;99.90
61807;DHT22;47726;52.766;6.606;2022-12-11T11:18:53;2.20;99.90
61807;DHT22;47726;52.766;6.606;2022-12-11T11:21:24;2.20;99.90
61807;DHT22;47726;52.766;6.606;2022-12-11T11:23:53;2.20;99.90
61807;DHT22;47726;52.766;6.606;2022-12-11T11:26:20;2.20;99.90
61807;DHT22;47726;52.766;6.606;2022-12-11T11:28:56;2.20;99.90
61807;DHT22;47726;52.766;6.606;2022-12-11T11:31:31;2.20;99.90
61807;DHT22;47726;52.766;6.606;2022-12-11T11:34:01;2.20;99.90
61807;DHT22;47726;52.766;6.606;2022-12-11T11:36:33;2.20;99.90
61807;DHT22;47726;52.766;6.606;2022-12-11T11:44:38;2.20;99.90
61807;DHT22;47726;52.766;6.606;2022-12-11T11:47:19;2.20;99.90
61807;DHT22;47726;52.766;6.606;2022-12-11T11:49:56;2.20;99.90
61807;DHT22;47726;52.766;6.606;2022-12-11T11:55:13;2.20;99.90
61807;DHT22;47726;52.766;6.606;2022-12-11T12:02:46;2.30;99.90
61807;DHT22;47726;52.766;6.606;2022-12-11T12:05:14;2.30;99.90
61807;DHT22;47726;52.766;6.606;2022-12-11T12:07:52;2.30;99.90
61807;DHT22;47726;52.766;6.606;2022-12-11T12:10:25;2.30;99.90
61807;DHT22;47726;52.766;6.606;2022-12-11T12:26:26;2.30;99.90
61807;DHT22;47726;52.766;6.606;2022-12-11T12:32:25;2.30;99.90
61807;DHT22;47726;52.766;6.606;2022-12-11T12:35:02;2.30;99.90
61807;DHT22;47726;52.766;6.606;2022-12-11T12:48:40;2.30;99.90
61807;DHT22;47726;52.766;6.606;2022-12-11T12:51:06;2.30;99.90
61807;DHT22;47726;52.766;6.606;2022-12-11T12:53:33;2.30;99.90
61807;DHT22;47726;52.766;6.606;2022-12-11T12:56:02;2.30;99.90
61807;DHT22;47726;52.766;6.606;2022-12-11T13:04:01;2.30;99.90
61807;DHT22;47726;52.766;6.606;2022-12-11T13:06:42;2.30;99.90
61807;DHT22;47726;52.766;6.606;2022-12-11T13:09:24;2.30;99.90
61807;DHT22;47726;52.766;6.606;2022-12-11T13:11:53;2.30;99.90
61807;DHT22;47726;52.766;6.606;2022-12-11T13:14:30;2.30;99.90
61807;DHT22;47726;52.766;6.606;2022-12-11T13:17:23;2.30;99.90
61807;DHT22;47726;52.766;6.606;2022-12-11T13:20:05;2.30;99.90
61807;DHT22;47726;52.766;6.606;2022-12-11T13:22:33;2.30;99.90
61807;DHT22;47726;52.766;6.606;2022-12-11T13:25:01;2.30;99.90
61807;DHT22;47726;52.766;6.606;2022-12-11T13:27:41;2.30;99.90
61807;DHT22;47726;52.766;6.606;2022-12-11T13:33:13;2.30;99.90
61807;DHT22;47726;52.766;6.606;2022-12-11T13:35:40;2.30;99.90
61807;DHT22;47726;52.766;6.606;2022-12-11T13:38:13;2.30;99.90
61807;DHT22;47726;52.766;6.606;2022-12-11T13:40:41;2.30;99.90
61807;DHT22;47726;52.766;6.606;2022-12-11T13:43:22;2.30;99.90
61807;DHT22;47726;52.766;6.606;2022-12-11T13:45:51;2.30;99.90
61807;DHT22;47726;52.766;6.606;2022-12-11T13:50:52;2.30;99.90
61807;DHT22;47726;52.766;6.606;2022-12-11T13:53:19;2.30;99.90
61807;DHT22;47726;52.766;6.606;2022-12-11T13:55:46;2.30;99.90
61807;DHT22;47726;52.766;6.606;2022-12-11T13:58:21;2.30;99.90
61807;DHT22;47726;52.766;6.606;2022-12-11T14:00:56;2.30;99.90
61807;DHT22;47726;52.766;6.606;2022-12-11T14:03:24;2.30;99.90
61807;DHT22;47726;52.766;6.606;2022-12-11T14:05:50;2.30;99.90
61807;DHT22;47726;52.766;6.606;2022-12-11T14:08:21;2.30;99.90
61807;DHT22;47726;52.766;6.606;2022-12-11T14:10:53;2.30;99.90
61807;DHT22;47726;52.766;6.606;2022-12-11T14:13:32;2.30;99.90
61807;DHT22;47726;52.766;6.606;2022-12-11T14:15:58;2.30;99.90
61807;DHT22;47726;52.766;6.606;2022-12-11T14:18:27;2.30;99.90
61807;DHT22;47726;52.766;6.606;2022-12-11T14:20:56;2.30;99.90
61807;DHT22;47726;52.766;6.606;2022-12-11T14:23:25;2.30;99.90
61807;DHT22;47726;52.766;6.606;2022-12-11T14:28:41;2.30;99.90
61807;DHT22;47726;52.766;6.606;2022-12-11T14:31:07;2.20;99.90
61807;DHT22;47726;52.766;6.606;2022-12-11T14:33:51;2.20;99.90
61807;DHT22;47726;52.766;6.606;2022-12-11T14:36:18;2.20;99.90
61807;DHT22;47726;52.766;6.606;2022-12-11T14:38:48;2.20;99.90
61807;DHT22;47726;52.766;6.606;2022-12-11T14:41:28;2.20;99.90
61807;DHT22;47726;52.766;6.606;2022-12-11T14:43:58;2.20;99.90
61807;DHT22;47726;52.766;6.606;2022-12-11T14:46:39;2.20;99.90
61807;DHT22;47726;52.766;6.606;2022-12-11T14:51:41;2.20;99.90
61807;DHT22;47726;52.766;6.606;2022-12-11T14:54:16;2.20;99.90
61807;DHT22;47726;52.766;6.606;2022-12-11T14:56:45;2.20;99.90
61807;DHT22;47726;52.766;6.606;2022-12-11T14:59:19;2.20;99.90
61807;DHT22;47726;52.766;6.606;2022-12-11T15:02:00;2.20;99.90
61807;DHT22;47726;52.766;6.606;2022-12-11T15:04:31;2.20;99.90
61807;DHT22;47726;52.766;6.606;2022-12-11T15:06:57;2.20;99.90
61807;DHT22;47726;52.766;6.606;2022-12-11T15:12:10;2.20;99.90
61807;DHT22;47726;52.766;6.606;2022-12-11T15:17:13;2.20;99.90
61807;DHT22;47726;52.766;6.606;2022-12-11T15:19:39;2.20;99.90
61807;DHT22;47726;52.766;6.606;2022-12-11T15:22:07;2.20;99.90
61807;DHT22;47726;52.766;6.606;2022-12-11T15:24:39;2.20;99.90
61807;DHT22;47726;52.766;6.606;2022-12-11T15:27:24;2.20;99.90
61807;DHT22;47726;52.766;6.606;2022-12-11T15:29:50;2.20;99.90
61807;DHT22;47726;52.766;6.606;2022-12-11T15:32:18;2.20;99.90
61807;DHT22;47726;52.766;6.606;2022-12-11T15:34:56;2.20;99.90
61807;DHT22;47726;52.766;6.606;2022-12-11T15:39:53;2.20;99.90
61807;DHT22;47726;52.766;6.606;2022-12-11T15:44:49;2.20;99.90
61807;DHT22;47726;52.766;6.606;2022-12-11T15:47:19;2.20;99.90
61807;DHT22;47726;52.766;6.606;2022-12-11T15:49:45;2.20;99.90
61807;DHT22;47726;52.766;6.606;2022-12-11T15:52:14;2.20;99.90
61807;DHT22;47726;52.766;6.606;2022-12-11T15:54:40;2.20;99.90
61807;DHT22;47726;52.766;6.606;2022-12-11T15:57:08;2.10;99.90
61807;DHT22;47726;52.766;6.606;2022-12-11T15:59:36;2.20;99.90
61807;DHT22;47726;52.766;6.606;2022-12-11T16:02:02;2.20;99.90
61807;DHT22;47726;52.766;6.606;2022-12-11T16:04:27;2.20;99.90
61807;DHT22;47726;52.766;6.606;2022-12-11T16:06:53;2.20;99.90
61807;DHT22;47726;52.766;6.606;2022-12-11T16:09:19;2.20;99.90
61807;DHT22;47726;52.766;6.606;2022-12-11T16:11:45;2.20;99.90
61807;DHT22;47726;52.766;6.606;2022-12-11T16:14:10;2.20;99.90
61807;DHT22;47726;52.766;6.606;2022-12-11T16:16:36;2.20;99.90
61807;DHT22;47726;52.766;6.606;2022-12-11T16:19:02;2.20;99.90
61807;DHT22;47726;52.766;6.606;2022-12-11T16:21:27;2.20;99.90
61807;DHT22;47726;52.766;6.606;2022-12-11T16:23:53;2.20;99.90
61807;DHT22;47726;52.766;6.606;2022-12-11T16:26:18;2.20;99.90
61807;DHT22;47726;52.766;6.606;2022-12-11T16:28:44;2.20;99.90
61807;DHT22;47726;52.766;6.606;2022-12-11T16:31:13;2.20;99.90
61807;DHT22;47726;52.766;6.606;2022-12-11T16:33:40;2.20;99.90
61807;DHT22;47726;52.766;6.606;2022-12-11T16:36:16;2.20;99.90
61807;DHT22;47726;52.766;6.606;2022-12-11T16:38:46;2.20;99.90
61807;DHT22;47726;52.766;6.606;2022-12-11T16:41:12;2.20;99.90
61807;DHT22;47726;52.766;6.606;2022-12-11T16:43:38;2.20;99.90
61807;DHT22;47726;52.766;6.606;2022-12-11T16:46:04;2.20;99.90
61807;DHT22;47726;52.766;6.606;2022-12-11T16:48:30;2.20;99.90
61807;DHT22;47726;52.766;6.606;2022-12-11T16:50:55;2.20;99.90
61807;DHT22;47726;52.766;6.606;2022-12-11T16:53:22;2.20;99.90
61807;DHT22;47726;52.766;6.606;2022-12-11T16:55:48;2.20;99.90
61807;DHT22;47726;52.766;6.606;2022-12-11T16:58:14;2.20;99.90
61807;DHT22;47726;52.766;6.606;2022-12-11T17:00:46;2.20;99.90
61807;DHT22;47726;52.766;6.606;2022-12-11T17:03:13;2.20;99.90
61807;DHT22;47726;52.766;6.606;2022-12-11T17:05:39;2.20;99.90
61807;DHT22;47726;52.766;6.606;2022-12-11T17:08:06;2.20;99.90
61807;DHT22;47726;52.766;6.606;2022-12-11T17:10:32;2.10;99.90
61807;DHT22;47726;52.766;6.606;2022-12-11T17:12:58;2.20;99.90
61807;DHT22;47726;52.766;6.606;2022-12-11T17:15:24;2.20;99.90
61807;DHT22;47726;52.766;6.606;2022-12-11T17:17:50;2.20;99.90
61807;DHT22;47726;52.766;6.606;2022-12-11T17:20:16;2.20;99.90
61807;DHT22;47726;52.766;6.606;2022-12-11T17:22:42;2.20;99.90
61807;DHT22;47726;52.766;6.606;2022-12-11T17:25:10;2.20;99.90
61807;DHT22;47726;52.766;6.606;2022-12-11T17:27:36;2.20;99.90
61807;DHT22;47726;52.766;6.606;2022-12-11T17:30:03;2.20;99.90
61807;DHT22;47726;52.766;6.606;2022-12-11T17:32:28;2.20;99.90
61807;DHT22;47726;52.766;6.606;2022-12-11T17:34:54;2.20;99.90
61807;DHT22;47726;52.766;6.606;2022-12-11T17:37:20;2.20;99.90
61807;DHT22;47726;52.766;6.606;2022-12-11T17:39:45;2.20;99.90
61807;DHT22;47726;52.766;6.606;2022-12-11T17:42:12;2.10;99.90
61807;DHT22;47726;52.766;6.606;2022-12-11T17:44:37;2.20;99.90
61807;DHT22;47726;52.766;6.606;2022-12-11T17:47:03;2.10;99.90
61807;DHT22;47726;52.766;6.606;2022-12-11T17:49:29;2.20;99.90
61807;DHT22;47726;52.766;6.606;2022-12-11T17:51:56;2.10;99.90